createdAt,value
2018-12-19T00:01:39.941Z,6.80
2018-12-19T00:04:13.742Z,6.45
2018-12-19T00:06:47.338Z,7.32
2018-12-19T00:09:20.946Z,7.00
2018-12-19T00:11:54.587Z,7.68
2018-12-19T00:14:28.438Z,7.22
2018-12-19T00:17:02.106Z,6.70
2018-12-19T00:19:35.691Z,6.80
2018-12-19T00:22:09.414Z,5.95
2018-12-19T00:24:44.030Z,7.32
2018-12-19T00:27:17.683Z,6.85
2018-12-19T00:29:51.335Z,7.80
2018-12-19T00:32:24.933Z,6.25
2018-12-19T00:34:58.739Z,7.03
2018-12-19T00:37:32.433Z,6.40
2018-12-19T00:40:06.121Z,6.35
2018-12-19T00:42:39.651Z,5.10
2018-12-19T00:45:13.493Z,6.15
2018-12-19T00:47:47.055Z,7.35
2018-12-19T00:50:20.716Z,4.80
2018-12-19T00:52:54.296Z,5.47
2018-12-19T00:55:27.987Z,6.25
2018-12-19T00:58:01.832Z,5.87
2018-12-19T01:00:35.443Z,6.32
2018-12-19T01:03:09.301Z,6.30
2018-12-19T01:05:43.006Z,5.62
2018-12-19T01:08:16.680Z,7.80
2018-12-19T01:10:50.313Z,5.20
2018-12-19T01:13:24.192Z,6.20
2018-12-19T01:15:57.906Z,5.68
2018-12-19T01:18:31.695Z,6.03
2018-12-19T01:21:05.404Z,5.30
2018-12-19T01:23:39.131Z,5.10
2018-12-19T01:26:13.206Z,5.30
2018-12-19T01:28:46.968Z,4.78
2018-12-19T01:31:20.613Z,5.25
2018-12-19T01:33:55.240Z,5.43
2018-12-19T01:36:28.782Z,4.80
2018-12-19T01:39:02.339Z,4.03
2018-12-19T01:41:36.089Z,4.03
2018-12-19T01:44:09.738Z,5.25
2018-12-19T01:46:43.535Z,4.90
2018-12-19T01:49:17.401Z,4.82
2018-12-19T01:51:51.205Z,5.35
2018-12-19T01:54:25.594Z,4.50
2018-12-19T01:56:59.207Z,6.25
2018-12-19T01:59:32.938Z,4.00
2018-12-19T02:02:06.703Z,5.62
2018-12-19T02:04:40.322Z,5.28
2018-12-19T02:07:14.128Z,4.80
2018-12-19T02:09:47.798Z,5.53
2018-12-19T02:12:21.647Z,5.68
2018-12-19T02:14:55.244Z,5.45
2018-12-19T02:17:29.022Z,5.55
2018-12-19T02:20:03.428Z,5.80
2018-12-19T02:22:37.144Z,5.65
2018-12-19T02:25:10.674Z,5.47
2018-12-19T02:27:44.463Z,5.85
2018-12-19T02:30:18.211Z,5.68
2018-12-19T02:32:52.816Z,5.45
2018-12-19T02:35:26.579Z,6.00
2018-12-19T02:38:00.185Z,5.25
2018-12-19T02:40:34.787Z,5.55
2018-12-19T02:43:08.422Z,4.87
2018-12-19T02:45:42.931Z,5.87
2018-12-19T02:48:16.503Z,5.93
2018-12-19T02:50:50.287Z,5.18
2018-12-19T02:53:24.813Z,5.57
2018-12-19T02:55:59.933Z,5.47
2018-12-19T02:58:33.702Z,7.15
2018-12-19T03:01:07.320Z,5.07
2018-12-19T03:03:41.099Z,4.80
2018-12-19T03:06:14.797Z,5.18
2018-12-19T03:08:48.383Z,5.10
2018-12-19T03:11:22.938Z,5.10
2018-12-19T03:13:56.503Z,5.37
2018-12-19T03:16:30.044Z,6.15
2018-12-19T03:19:03.759Z,5.93
2018-12-19T03:21:37.437Z,5.47
2018-12-19T03:24:11.013Z,5.93
2018-12-19T03:26:44.612Z,5.62
2018-12-19T03:29:18.933Z,5.32
2018-12-19T03:31:52.721Z,6.53
2018-12-19T03:34:26.272Z,5.93
2018-12-19T03:36:59.844Z,6.15
2018-12-19T03:39:33.436Z,5.90
2018-12-19T03:42:08.504Z,5.53
2018-12-19T03:44:42.107Z,5.55
2018-12-19T03:47:16.460Z,5.32
2018-12-19T03:49:49.999Z,5.20
2018-12-19T03:52:23.762Z,5.80
2018-12-19T03:54:57.307Z,4.85
2018-12-19T03:57:31.755Z,4.70
2018-12-19T04:00:06.066Z,4.95
2018-12-19T04:02:39.748Z,5.32
2018-12-19T04:05:13.460Z,4.87
2018-12-19T04:07:47.777Z,5.55
2018-12-19T04:10:21.518Z,4.43
2018-12-19T04:12:55.297Z,4.50
2018-12-19T04:15:29.060Z,5.60
2018-12-19T04:18:02.845Z,6.18
2018-12-19T04:20:36.664Z,5.50
2018-12-19T04:23:10.427Z,5.65
2018-12-19T04:25:43.961Z,6.45
2018-12-19T04:28:17.676Z,6.28
2018-12-19T04:30:51.096Z,4.35
2018-12-19T04:33:24.618Z,5.75
2018-12-19T04:35:58.253Z,7.53
2018-12-19T04:38:32.013Z,6.95
2018-12-19T04:41:05.789Z,6.15
2018-12-19T04:43:39.341Z,5.22
2018-12-19T04:46:13.739Z,5.20
2018-12-19T04:48:47.482Z,5.03
2018-12-19T04:51:21.053Z,4.45
2018-12-19T04:53:55.578Z,5.75
2018-12-19T04:56:30.035Z,5.40
2018-12-19T04:59:03.721Z,4.68
2018-12-19T05:01:37.308Z,5.65
2018-12-19T05:04:11.826Z,5.43
2018-12-19T05:06:45.468Z,5.47
2018-12-19T05:09:19.748Z,5.70
2018-12-19T05:11:53.492Z,5.30
2018-12-19T05:14:27.068Z,5.78
2018-12-19T05:17:00.701Z,6.78
2018-12-19T05:19:34.255Z,5.30
2018-12-19T05:22:07.803Z,6.37
2018-12-19T05:24:42.289Z,6.25
2018-12-19T05:27:15.856Z,5.45
2018-12-19T05:29:49.486Z,5.22
2018-12-19T05:32:23.223Z,5.07
2018-12-19T05:34:56.783Z,6.43
2018-12-19T05:37:30.327Z,5.72
2018-12-19T05:40:03.879Z,5.37
2018-12-19T05:42:37.486Z,5.50
2018-12-19T05:45:11.183Z,5.85
2018-12-19T05:47:45.143Z,4.82
2018-12-19T05:50:18.887Z,4.55
2018-12-19T05:52:52.659Z,6.65
2018-12-19T05:55:26.416Z,7.15
2018-12-19T05:57:59.979Z,6.82
2018-12-19T06:00:33.486Z,5.37
2018-12-19T06:03:07.122Z,6.35
2018-12-19T06:05:40.788Z,6.80
2018-12-19T06:08:14.699Z,6.82
2018-12-19T06:10:48.386Z,6.22
2018-12-19T06:13:23.008Z,5.93
2018-12-19T06:15:56.648Z,5.15
2018-12-19T06:18:30.284Z,5.35
2018-12-19T06:21:04.091Z,5.75
2018-12-19T06:23:38.592Z,5.55
2018-12-19T06:26:12.347Z,6.10
2018-12-19T06:28:46.181Z,7.20
2018-12-19T06:31:19.835Z,6.15
2018-12-19T06:33:53.554Z,6.50
2018-12-19T06:36:27.278Z,5.80
2018-12-19T06:39:01.132Z,5.68
2018-12-19T06:41:34.880Z,6.45
2018-12-19T06:44:09.494Z,6.22
2018-12-19T06:46:43.227Z,5.95
2018-12-19T06:49:16.750Z,6.15
2018-12-19T06:51:51.344Z,6.60
2018-12-19T06:54:25.909Z,6.85
2018-12-19T06:56:59.580Z,6.53
2018-12-19T06:59:33.239Z,7.05
2018-12-19T07:02:06.855Z,5.85
2018-12-19T07:04:40.647Z,6.45
2018-12-19T07:07:14.288Z,6.87
2018-12-19T07:09:48.644Z,6.62
2018-12-19T07:12:22.332Z,6.00
2018-12-19T07:14:56.059Z,6.50
2018-12-19T07:17:30.572Z,7.65
2018-12-19T07:20:04.319Z,6.45
2018-12-19T07:22:39.902Z,7.20
2018-12-19T07:25:13.487Z,7.40
2018-12-19T07:27:47.085Z,8.65
2018-12-19T07:30:20.864Z,7.35
2018-12-19T07:32:54.504Z,7.20
2018-12-19T07:35:28.091Z,6.80
2018-12-19T07:38:01.835Z,6.25
2018-12-19T07:40:35.444Z,9.48
2018-12-19T07:43:09.226Z,7.90
2018-12-19T07:45:42.971Z,6.62
2018-12-19T07:48:16.723Z,6.55
2018-12-19T07:50:50.501Z,10.80
2018-12-19T07:53:24.421Z,7.05
2018-12-19T07:55:58.000Z,7.15
2018-12-19T07:58:31.735Z,5.30
2018-12-19T08:01:05.519Z,5.07
2018-12-19T08:03:39.238Z,6.20
2018-12-19T08:06:12.979Z,6.75
2018-12-19T08:08:46.614Z,8.05
2018-12-19T08:11:20.419Z,7.25
2018-12-19T08:13:54.137Z,6.43
2018-12-19T08:16:27.929Z,5.25
2018-12-19T08:19:01.513Z,5.00
2018-12-19T08:21:36.104Z,5.82
2018-12-19T08:24:09.754Z,6.62
2018-12-19T08:26:43.407Z,6.30
2018-12-19T08:29:16.956Z,8.40
2018-12-19T08:31:50.968Z,8.38
2018-12-19T08:34:24.771Z,7.40
2018-12-19T08:36:59.368Z,7.78
2018-12-19T08:39:33.053Z,8.18
2018-12-19T08:42:06.771Z,7.30
2018-12-19T08:44:40.549Z,6.68
2018-12-19T08:47:14.480Z,7.05
2018-12-19T08:49:48.698Z,6.62
2018-12-19T08:52:22.313Z,6.18
2018-12-19T08:54:55.833Z,6.50
2018-12-19T08:57:29.660Z,6.70
2018-12-19T09:00:04.148Z,7.10
2018-12-19T09:02:37.891Z,6.55
2018-12-19T09:05:11.677Z,8.13
2018-12-19T09:07:45.269Z,7.20
2018-12-19T09:10:18.816Z,8.98
2018-12-19T09:12:52.444Z,7.72
2018-12-19T09:15:31.771Z,7.28
2018-12-19T09:18:05.568Z,8.98
2018-12-19T09:20:39.824Z,8.40
2018-12-19T09:23:13.579Z,7.65
2018-12-19T09:25:47.323Z,9.45
2018-12-19T09:28:20.911Z,9.70
2018-12-19T09:30:54.510Z,8.38
2018-12-19T09:33:28.291Z,9.43
2018-12-19T09:36:01.926Z,8.25
2018-12-19T09:38:36.425Z,9.13
2018-12-19T09:41:12.359Z,8.35
2018-12-19T09:43:43.896Z,8.73
2018-12-19T09:46:18.411Z,9.38
2018-12-19T09:48:52.128Z,10.10
2018-12-19T09:51:25.680Z,8.27
2018-12-19T09:53:59.302Z,8.70
2018-12-19T09:56:32.900Z,9.65
2018-12-19T09:59:06.642Z,8.80
2018-12-19T10:01:41.127Z,8.90
2018-12-19T10:04:15.570Z,9.30
2018-12-19T10:06:49.096Z,8.60
2018-12-19T10:09:22.680Z,9.30
2018-12-19T10:11:56.336Z,8.75
2018-12-19T10:14:29.934Z,8.55
2018-12-19T10:17:03.590Z,9.80
2018-12-19T10:19:37.231Z,12.05
2018-12-19T10:22:18.766Z,9.60
2018-12-19T10:24:59.677Z,9.35
2018-12-19T10:27:45.720Z,9.73
2018-12-19T10:33:12.883Z,8.80
2018-12-19T10:35:46.597Z,8.55
2018-12-19T10:38:20.331Z,9.35
2018-12-19T10:40:53.995Z,8.60
2018-12-19T10:43:27.543Z,8.10
2018-12-19T10:46:01.156Z,8.52
2018-12-19T10:48:34.749Z,8.50
2018-12-19T10:51:08.501Z,8.73
2018-12-19T10:53:42.092Z,8.85
2018-12-19T10:56:16.578Z,9.10
2018-12-19T10:58:50.112Z,7.53
2018-12-19T11:01:23.875Z,7.10
2018-12-19T11:03:57.841Z,9.95
2018-12-19T11:06:52.519Z,10.30
2018-12-19T11:09:26.111Z,8.30
2018-12-19T11:12:23.483Z,9.25
2018-12-19T11:14:59.677Z,10.88
2018-12-19T11:17:33.790Z,10.63
2018-12-19T11:20:09.323Z,10.27
2018-12-19T11:22:43.187Z,10.20
2018-12-19T11:25:16.885Z,10.07
2018-12-19T11:27:50.496Z,15.40
2018-12-19T11:30:24.279Z,10.73
2018-12-19T11:32:58.731Z,9.93
2018-12-19T11:35:32.282Z,10.77
2018-12-19T11:38:06.097Z,11.60
2018-12-19T11:40:39.801Z,10.98
2018-12-19T11:43:14.080Z,13.35
2018-12-19T11:45:47.771Z,11.48
2018-12-19T11:48:24.199Z,11.77
2018-12-19T11:50:57.914Z,11.52
2018-12-19T11:53:31.665Z,13.82
2018-12-19T11:56:06.227Z,12.70
2018-12-19T11:58:41.011Z,11.90
2018-12-19T12:01:14.819Z,11.75
2018-12-19T12:03:48.433Z,10.88
2018-12-19T12:06:22.342Z,11.38
2018-12-19T12:08:59.664Z,9.75
2018-12-19T12:11:33.174Z,11.27
2018-12-19T12:14:06.836Z,10.55
2018-12-19T12:16:40.650Z,10.02
2018-12-19T12:19:15.046Z,10.75
2018-12-19T12:21:48.702Z,11.15
2018-12-19T12:24:22.354Z,9.43
2018-12-19T12:26:56.258Z,9.65
2018-12-19T12:29:30.647Z,9.48
2018-12-19T12:32:04.958Z,9.20
2018-12-19T12:34:39.355Z,10.55
2018-12-19T12:37:12.967Z,11.00
2018-12-19T12:39:46.722Z,8.93
2018-12-19T12:42:20.325Z,11.93
2018-12-19T12:44:53.921Z,10.20
2018-12-19T12:47:27.658Z,10.30
2018-12-19T12:50:01.322Z,9.20
2018-12-19T12:52:34.862Z,9.60
2018-12-19T12:55:08.569Z,11.18
2018-12-19T12:57:44.210Z,10.43
2018-12-19T13:00:31.921Z,11.70
2018-12-19T13:03:05.599Z,10.35
2018-12-19T13:05:39.704Z,11.10
2018-12-19T13:08:14.107Z,11.38
2018-12-19T13:11:11.020Z,9.63
2018-12-19T13:23:03.372Z,6.82
2018-12-19T13:25:38.260Z,8.75
2018-12-19T13:28:12.672Z,10.57
2018-12-19T13:30:47.070Z,10.10
2018-12-19T13:33:27.752Z,11.23
2018-12-19T13:36:01.490Z,10.73
2018-12-19T13:38:35.166Z,10.05
2018-12-19T13:41:09.658Z,10.43
2018-12-19T13:43:44.083Z,9.20
2018-12-19T13:46:17.737Z,11.10
2018-12-19T13:48:51.359Z,10.05
2018-12-19T13:51:24.964Z,10.80
2018-12-19T13:53:58.508Z,10.93
2018-12-19T13:56:32.334Z,11.43
2018-12-19T13:59:06.226Z,9.45
2018-12-19T14:01:39.903Z,12.35
2018-12-19T14:04:13.486Z,9.65
2018-12-19T14:06:47.933Z,8.63
2018-12-19T14:09:21.588Z,9.95
2018-12-19T14:11:55.158Z,9.93
2018-12-19T14:14:28.849Z,10.40
2018-12-19T14:17:02.527Z,11.12
2018-12-19T14:19:36.208Z,11.57
2018-12-19T14:22:09.984Z,11.18
2018-12-19T14:24:43.768Z,10.48
2018-12-19T14:27:18.206Z,10.73
2018-12-19T14:29:51.839Z,10.75
2018-12-19T14:32:25.591Z,10.05
2018-12-19T14:34:59.196Z,10.00
2018-12-19T14:37:32.895Z,10.15
2018-12-19T14:40:06.587Z,9.02
2018-12-19T14:42:40.143Z,10.82
2018-12-19T14:45:13.810Z,11.25
2018-12-19T14:47:47.636Z,10.75
2018-12-19T14:50:22.131Z,10.82
2018-12-19T14:52:55.784Z,11.38
2018-12-19T14:55:29.432Z,12.15
2018-12-19T14:58:03.229Z,10.43
2018-12-19T15:00:37.017Z,10.45
2018-12-19T15:03:10.758Z,10.75
2018-12-19T15:05:45.465Z,11.52
2018-12-19T15:08:19.302Z,11.20
2018-12-19T15:10:53.702Z,11.70
2018-12-19T15:13:27.401Z,10.52
2018-12-19T15:16:02.090Z,9.63
2018-12-19T15:18:35.756Z,10.80
2018-12-19T15:21:10.784Z,21.05
2018-12-19T15:23:44.352Z,10.32
2018-12-19T15:26:17.887Z,9.77
2018-12-19T15:28:51.631Z,9.63
2018-12-19T15:31:25.272Z,11.73
2018-12-19T15:33:59.039Z,9.55
2018-12-19T15:36:32.679Z,12.15
2018-12-19T15:39:06.294Z,10.90
2018-12-19T15:41:39.991Z,11.52
2018-12-19T15:44:13.633Z,10.73
2018-12-19T15:46:47.355Z,10.20
2018-12-19T15:49:21.201Z,9.55
2018-12-19T15:51:54.921Z,9.82
2018-12-19T15:54:28.669Z,9.90
2018-12-19T15:57:02.377Z,10.98
2018-12-19T15:59:36.729Z,8.85
2018-12-19T16:02:10.435Z,9.52
2018-12-19T16:04:44.136Z,10.48
2018-12-19T16:07:17.814Z,8.50
2018-12-19T16:09:51.621Z,6.93
2018-12-19T16:12:25.312Z,7.60
2018-12-19T16:14:58.970Z,7.65
2018-12-19T16:17:32.559Z,7.62
2018-12-19T16:20:07.082Z,8.40
2018-12-19T16:22:42.121Z,8.13
2018-12-19T16:25:16.550Z,8.13
2018-12-19T16:27:50.257Z,8.52
2018-12-19T16:30:24.049Z,7.30
2018-12-19T16:32:57.673Z,7.45
2018-12-19T16:35:31.364Z,7.90
2018-12-19T16:38:04.952Z,6.78
2018-12-19T16:40:38.778Z,8.07
2018-12-19T16:43:13.188Z,7.47
2018-12-19T16:45:46.833Z,7.87
2018-12-19T16:48:21.419Z,7.70
2018-12-19T16:50:55.803Z,7.68
2018-12-19T16:53:30.242Z,6.82
2018-12-19T16:56:04.620Z,8.52
2018-12-19T16:58:38.273Z,7.45
2018-12-19T17:01:11.906Z,8.00
2018-12-19T17:03:45.479Z,6.90
2018-12-19T17:06:19.252Z,8.73
2018-12-19T17:08:52.930Z,8.30
2018-12-19T17:11:26.590Z,7.78
2018-12-19T17:14:00.170Z,7.50
2018-12-19T17:16:33.773Z,7.95
2018-12-19T17:19:07.386Z,8.15
2018-12-19T17:21:41.078Z,7.70
2018-12-19T17:24:14.648Z,8.45
2018-12-19T17:26:48.200Z,8.27
2018-12-19T17:29:21.931Z,10.27
2018-12-19T17:31:55.582Z,11.00
2018-12-19T17:34:29.382Z,11.12
2018-12-19T17:37:03.015Z,10.40
2018-12-19T17:39:36.817Z,12.05
2018-12-19T17:42:10.438Z,11.63
2018-12-19T17:44:44.009Z,11.00
2018-12-19T17:47:17.599Z,10.93
2018-12-19T17:49:52.118Z,11.20
2018-12-19T17:52:25.969Z,11.07
2018-12-19T17:54:59.650Z,11.02
2018-12-19T17:57:33.452Z,12.48
2018-12-19T18:00:07.113Z,11.82
2018-12-19T18:02:40.847Z,11.52
2018-12-19T18:05:14.361Z,13.43
2018-12-19T18:07:48.010Z,11.90
2018-12-19T18:10:21.598Z,11.70
2018-12-19T18:12:55.499Z,11.27
2018-12-19T18:15:29.987Z,10.38
2018-12-19T18:18:03.721Z,9.82
2018-12-19T18:20:37.390Z,11.57
2018-12-19T18:23:11.488Z,10.52
2018-12-19T18:25:45.069Z,10.40
2018-12-19T18:28:18.929Z,8.93
2018-12-19T18:30:52.498Z,9.07
2018-12-19T18:33:26.118Z,12.05
2018-12-19T18:35:59.832Z,10.48
2018-12-19T18:38:33.554Z,9.93
2018-12-19T18:41:07.142Z,11.38
2018-12-19T18:43:40.849Z,9.50
2018-12-19T18:46:14.488Z,9.88
2018-12-19T18:48:48.150Z,6.30
2018-12-19T18:51:21.927Z,8.25
2018-12-19T18:53:55.794Z,7.60
2018-12-19T18:56:29.500Z,5.82
2018-12-19T18:59:03.310Z,7.32
2018-12-19T19:01:37.859Z,6.10
2018-12-19T19:04:11.653Z,5.10
2018-12-19T19:06:46.166Z,5.87
2018-12-19T19:09:19.691Z,5.87
2018-12-19T19:11:53.194Z,5.85
2018-12-19T19:14:26.916Z,5.55
2018-12-19T19:17:00.727Z,6.07
2018-12-19T19:19:34.510Z,4.90
2018-12-19T19:22:08.217Z,5.20
2018-12-19T19:24:41.821Z,5.00
2018-12-19T19:27:15.420Z,5.47
2018-12-19T19:29:49.157Z,4.72
2018-12-19T19:32:22.961Z,3.62
2018-12-19T19:34:56.507Z,4.40
2018-12-19T19:37:30.230Z,4.20
2018-12-19T19:40:03.953Z,3.95
2018-12-19T19:42:37.605Z,3.40
2018-12-19T19:45:11.986Z,4.20
2018-12-19T19:47:45.620Z,4.57
2018-12-19T19:50:19.444Z,4.35
2018-12-19T19:52:53.996Z,3.70
2018-12-19T19:55:27.696Z,2.78
2018-12-19T19:58:01.525Z,2.70
2018-12-19T20:00:35.753Z,3.40
2018-12-19T20:03:08.918Z,3.10
2018-12-19T20:05:42.699Z,4.47
2018-12-19T20:08:16.405Z,2.25
2018-12-19T20:10:50.147Z,1.95
2018-12-19T20:13:23.941Z,1.67
2018-12-19T20:15:57.549Z,1.83
2018-12-19T20:18:31.293Z,1.80
2018-12-19T20:21:05.030Z,2.28
2018-12-19T20:23:38.614Z,2.20
2018-12-19T20:26:12.407Z,1.80
2018-12-19T20:28:46.171Z,2.33
2018-12-19T20:31:19.897Z,2.30
2018-12-19T20:33:53.455Z,1.65
2018-12-19T20:36:27.188Z,2.05
2018-12-19T20:39:01.027Z,2.10
2018-12-19T20:41:35.593Z,2.42
2018-12-19T20:44:09.935Z,1.23
2018-12-19T20:46:43.592Z,1.48
2018-12-19T20:49:17.439Z,1.58
2018-12-19T20:51:51.065Z,1.33
2018-12-19T20:54:24.703Z,1.35
2018-12-19T20:56:58.353Z,1.60
2018-12-19T20:59:31.846Z,2.25
2018-12-19T21:02:05.538Z,1.65
2018-12-19T21:04:40.060Z,1.90
2018-12-19T21:07:13.813Z,1.70
2018-12-19T21:09:47.495Z,1.87
2018-12-19T21:12:21.206Z,1.90
2018-12-19T21:14:54.947Z,1.27
2018-12-19T21:17:34.244Z,1.30
2018-12-19T21:20:07.827Z,1.70
2018-12-19T21:22:41.475Z,1.90
2018-12-19T21:25:15.175Z,2.25
2018-12-19T21:27:48.868Z,1.80
2018-12-19T21:30:22.450Z,1.35
2018-12-19T21:32:56.838Z,1.55
2018-12-19T21:35:30.492Z,1.87
2018-12-19T21:38:04.029Z,2.10
2018-12-19T21:40:37.662Z,1.95
2018-12-19T21:43:11.346Z,1.70
2018-12-19T21:45:51.623Z,2.35
2018-12-19T21:48:19.371Z,1.27
2018-12-19T21:50:53.977Z,1.60
2018-12-19T21:53:27.795Z,1.60
2018-12-19T21:56:01.483Z,1.65
2018-12-19T21:58:35.079Z,1.65
2018-12-19T22:01:09.506Z,1.62
2018-12-19T22:03:43.251Z,1.60
2018-12-19T22:06:16.808Z,1.12
2018-12-19T22:08:50.680Z,1.10
2018-12-19T22:11:24.382Z,0.90
2018-12-19T22:14:00.645Z,0.90
2018-12-19T22:16:37.440Z,1.50
2018-12-19T22:19:11.731Z,1.30
2018-12-19T22:21:46.243Z,1.60
2018-12-19T22:24:19.887Z,1.80
2018-12-19T22:26:54.327Z,2.00
2018-12-19T22:29:28.051Z,1.40
2018-12-19T22:32:01.695Z,2.10
2018-12-19T22:34:35.207Z,1.52
2018-12-19T22:37:08.857Z,1.55
2018-12-19T22:39:43.255Z,5.32
2018-12-19T22:42:17.630Z,1.48
2018-12-19T22:44:52.071Z,1.30
2018-12-19T22:47:25.648Z,1.33
2018-12-19T22:49:59.251Z,1.60
2018-12-19T22:52:32.982Z,1.10
2018-12-19T22:55:06.678Z,1.30
2018-12-19T22:57:40.979Z,1.80
2018-12-19T23:00:14.669Z,1.37
2018-12-19T23:02:54.710Z,1.30
2018-12-19T23:05:34.246Z,1.50
2018-12-19T23:08:08.090Z,1.50
2018-12-19T23:10:41.579Z,1.20
2018-12-19T23:13:15.147Z,2.10
2018-12-19T23:15:48.920Z,1.45
2018-12-19T23:18:26.626Z,1.95
2018-12-19T23:21:00.146Z,1.95
2018-12-19T23:23:33.953Z,1.55
2018-12-19T23:26:07.524Z,1.77
2018-12-19T23:28:41.115Z,1.60
2018-12-19T23:31:14.867Z,1.30
2018-12-19T23:33:49.302Z,1.35
2018-12-19T23:36:23.143Z,1.17
2018-12-19T23:38:57.375Z,2.03
2018-12-19T23:41:31.118Z,1.12
2018-12-19T23:44:04.725Z,1.10
2018-12-19T23:46:38.385Z,1.10
2018-12-19T23:49:12.040Z,1.45
2018-12-19T23:51:45.716Z,1.40
2018-12-19T23:54:19.528Z,1.33
2018-12-19T23:56:53.833Z,1.40
2018-12-19T23:59:27.336Z,1.10
